sensor_id;sensor_type;location;lat;lon;timestamp;P1;durP1;ratioP1;P2;durP2;ratioP2
81396;SDS011;70852;49.908;8.126;2023-08-20T00:00:25;6.22;;;3.17;;
81396;SDS011;70852;49.908;8.126;2023-08-20T00:02:51;5.72;;;2.80;;
81396;SDS011;70852;49.908;8.126;2023-08-20T00:05:25;5.38;;;3.10;;
81396;SDS011;70852;49.908;8.126;2023-08-20T00:07:53;5.10;;;3.03;;
81396;SDS011;70852;49.908;8.126;2023-08-20T00:10:25;5.00;;;3.20;;
81396;SDS011;70852;49.908;8.126;2023-08-20T00:12:53;5.20;;;3.08;;
81396;SDS011;70852;49.908;8.126;2023-08-20T00:15:18;4.95;;;3.15;;
81396;SDS011;70852;49.908;8.126;2023-08-20T00:17:54;5.43;;;3.42;;
81396;SDS011;70852;49.908;8.126;2023-08-20T00:22:46;6.57;;;3.63;;
81396;SDS011;70852;49.908;8.126;2023-08-20T00:25:12;5.65;;;3.30;;
81396;SDS011;70852;49.908;8.126;2023-08-20T00:27:39;5.65;;;3.10;;
81396;SDS011;70852;49.908;8.126;2023-08-20T00:30:05;4.95;;;3.00;;
81396;SDS011;70852;49.908;8.126;2023-08-20T00:32:34;5.18;;;3.05;;
81396;SDS011;70852;49.908;8.126;2023-08-20T00:35:02;5.65;;;3.35;;
81396;SDS011;70852;49.908;8.126;2023-08-20T00:37:31;5.32;;;3.60;;
81396;SDS011;70852;49.908;8.126;2023-08-20T00:39:56;5.10;;;3.28;;
81396;SDS011;70852;49.908;8.126;2023-08-20T00:42:27;7.25;;;3.53;;
81396;SDS011;70852;49.908;8.126;2023-08-20T00:44:55;5.68;;;3.08;;
81396;SDS011;70852;49.908;8.126;2023-08-20T00:47:23;5.70;;;3.50;;
81396;SDS011;70852;49.908;8.126;2023-08-20T00:49:48;7.05;;;3.25;;
81396;SDS011;70852;49.908;8.126;2023-08-20T00:52:14;7.03;;;3.35;;
81396;SDS011;70852;49.908;8.126;2023-08-20T00:54:42;6.13;;;3.42;;
81396;SDS011;70852;49.908;8.126;2023-08-20T00:57:09;6.65;;;3.78;;
81396;SDS011;70852;49.908;8.126;2023-08-20T00:59:40;7.68;;;3.47;;
81396;SDS011;70852;49.908;8.126;2023-08-20T01:02:05;5.53;;;3.63;;
81396;SDS011;70852;49.908;8.126;2023-08-20T01:04:31;6.50;;;3.40;;
81396;SDS011;70852;49.908;8.126;2023-08-20T01:07:14;8.05;;;3.75;;
81396;SDS011;70852;49.908;8.126;2023-08-20T01:12:31;5.93;;;3.38;;
81396;SDS011;70852;49.908;8.126;2023-08-20T01:15:03;4.85;;;3.15;;
81396;SDS011;70852;49.908;8.126;2023-08-20T01:17:33;7.18;;;3.42;;
81396;SDS011;70852;49.908;8.126;2023-08-20T01:20:00;6.38;;;3.45;;
81396;SDS011;70852;49.908;8.126;2023-08-20T01:22:47;5.50;;;3.70;;
81396;SDS011;70852;49.908;8.126;2023-08-20T01:30:25;5.70;;;3.27;;
81396;SDS011;70852;49.908;8.126;2023-08-20T01:32:53;6.47;;;3.85;;
81396;SDS011;70852;49.908;8.126;2023-08-20T01:35:19;5.65;;;3.40;;
81396;SDS011;70852;49.908;8.126;2023-08-20T01:37:44;6.20;;;3.47;;
81396;SDS011;70852;49.908;8.126;2023-08-20T01:40:10;5.88;;;3.63;;
81396;SDS011;70852;49.908;8.126;2023-08-20T01:42:39;6.57;;;3.80;;
81396;SDS011;70852;49.908;8.126;2023-08-20T01:47:33;6.57;;;3.53;;
81396;SDS011;70852;49.908;8.126;2023-08-20T01:49:58;6.45;;;3.47;;
81396;SDS011;70852;49.908;8.126;2023-08-20T01:52:24;6.97;;;3.72;;
81396;SDS011;70852;49.908;8.126;2023-08-20T01:54:51;6.15;;;3.40;;
81396;SDS011;70852;49.908;8.126;2023-08-20T01:57:18;6.22;;;4.13;;
81396;SDS011;70852;49.908;8.126;2023-08-20T01:59:43;5.18;;;3.20;;
81396;SDS011;70852;49.908;8.126;2023-08-20T02:02:11;8.30;;;3.63;;
81396;SDS011;70852;49.908;8.126;2023-08-20T02:04:36;6.97;;;3.60;;
81396;SDS011;70852;49.908;8.126;2023-08-20T02:07:04;5.88;;;3.65;;
81396;SDS011;70852;49.908;8.126;2023-08-20T02:09:34;7.88;;;3.65;;
81396;SDS011;70852;49.908;8.126;2023-08-20T02:12:00;6.15;;;3.45;;
81396;SDS011;70852;49.908;8.126;2023-08-20T02:14:25;5.50;;;3.15;;
81396;SDS011;70852;49.908;8.126;2023-08-20T02:16:52;6.97;;;3.55;;
81396;SDS011;70852;49.908;8.126;2023-08-20T02:19:17;8.00;;;3.88;;
81396;SDS011;70852;49.908;8.126;2023-08-20T02:21:42;7.20;;;3.85;;
81396;SDS011;70852;49.908;8.126;2023-08-20T02:24:08;4.93;;;3.13;;
81396;SDS011;70852;49.908;8.126;2023-08-20T02:26:33;6.07;;;3.20;;
81396;SDS011;70852;49.908;8.126;2023-08-20T02:28:58;5.07;;;3.75;;
81396;SDS011;70852;49.908;8.126;2023-08-20T02:31:24;6.30;;;3.10;;
81396;SDS011;70852;49.908;8.126;2023-08-20T02:33:49;6.93;;;3.53;;
81396;SDS011;70852;49.908;8.126;2023-08-20T02:36:14;5.38;;;3.33;;
81396;SDS011;70852;49.908;8.126;2023-08-20T02:38:42;9.57;;;3.47;;
81396;SDS011;70852;49.908;8.126;2023-08-20T02:41:10;6.00;;;4.05;;
81396;SDS011;70852;49.908;8.126;2023-08-20T02:43:35;5.75;;;3.80;;
81396;SDS011;70852;49.908;8.126;2023-08-20T02:46:00;8.45;;;3.67;;
81396;SDS011;70852;49.908;8.126;2023-08-20T02:48:25;7.15;;;3.47;;
81396;SDS011;70852;49.908;8.126;2023-08-20T02:50:52;5.50;;;3.40;;
81396;SDS011;70852;49.908;8.126;2023-08-20T02:53:23;5.80;;;3.58;;
81396;SDS011;70852;49.908;8.126;2023-08-20T02:55:48;6.35;;;3.53;;
81396;SDS011;70852;49.908;8.126;2023-08-20T02:58:14;7.15;;;3.90;;
81396;SDS011;70852;49.908;8.126;2023-08-20T03:00:41;7.13;;;3.50;;
81396;SDS011;70852;49.908;8.126;2023-08-20T03:03:08;5.50;;;3.90;;
81396;SDS011;70852;49.908;8.126;2023-08-20T03:05:34;5.95;;;3.53;;
81396;SDS011;70852;49.908;8.126;2023-08-20T03:08:07;6.78;;;3.85;;
81396;SDS011;70852;49.908;8.126;2023-08-20T03:10:33;6.75;;;3.45;;
81396;SDS011;70852;49.908;8.126;2023-08-20T03:12:59;7.57;;;4.22;;
81396;SDS011;70852;49.908;8.126;2023-08-20T03:15:26;5.97;;;3.45;;
81396;SDS011;70852;49.908;8.126;2023-08-20T03:17:54;7.13;;;3.25;;
81396;SDS011;70852;49.908;8.126;2023-08-20T03:20:22;6.07;;;3.80;;
81396;SDS011;70852;49.908;8.126;2023-08-20T03:22:47;6.22;;;3.70;;
81396;SDS011;70852;49.908;8.126;2023-08-20T03:25:15;5.70;;;3.55;;
81396;SDS011;70852;49.908;8.126;2023-08-20T03:27:45;9.30;;;3.70;;
81396;SDS011;70852;49.908;8.126;2023-08-20T03:30:11;7.65;;;3.67;;
81396;SDS011;70852;49.908;8.126;2023-08-20T03:32:37;6.63;;;3.58;;
81396;SDS011;70852;49.908;8.126;2023-08-20T03:35:02;4.65;;;3.22;;
81396;SDS011;70852;49.908;8.126;2023-08-20T03:37:30;5.72;;;3.53;;
81396;SDS011;70852;49.908;8.126;2023-08-20T03:39:55;6.63;;;3.67;;
81396;SDS011;70852;49.908;8.126;2023-08-20T03:42:20;5.78;;;3.50;;
81396;SDS011;70852;49.908;8.126;2023-08-20T03:44:46;6.40;;;3.20;;
81396;SDS011;70852;49.908;8.126;2023-08-20T03:47:11;5.50;;;3.28;;
81396;SDS011;70852;49.908;8.126;2023-08-20T03:49:37;5.93;;;3.30;;
81396;SDS011;70852;49.908;8.126;2023-08-20T03:52:05;5.78;;;3.25;;
81396;SDS011;70852;49.908;8.126;2023-08-20T03:54:32;5.38;;;3.38;;
81396;SDS011;70852;49.908;8.126;2023-08-20T03:56:58;10.25;;;4.18;;
81396;SDS011;70852;49.908;8.126;2023-08-20T03:59:23;6.30;;;3.40;;
81396;SDS011;70852;49.908;8.126;2023-08-20T04:01:49;7.15;;;3.75;;
81396;SDS011;70852;49.908;8.126;2023-08-20T04:04:16;7.22;;;3.85;;
81396;SDS011;70852;49.908;8.126;2023-08-20T04:06:42;8.50;;;4.10;;
81396;SDS011;70852;49.908;8.126;2023-08-20T04:09:07;5.65;;;3.45;;
81396;SDS011;70852;49.908;8.126;2023-08-20T04:11:34;5.63;;;3.58;;
81396;SDS011;70852;49.908;8.126;2023-08-20T04:14:02;5.30;;;3.60;;
81396;SDS011;70852;49.908;8.126;2023-08-20T04:16:29;5.43;;;3.45;;
81396;SDS011;70852;49.908;8.126;2023-08-20T04:18:57;7.10;;;3.25;;
81396;SDS011;70852;49.908;8.126;2023-08-20T04:21:22;5.55;;;3.35;;
81396;SDS011;70852;49.908;8.126;2023-08-20T04:23:48;10.65;;;3.90;;
81396;SDS011;70852;49.908;8.126;2023-08-20T04:26:13;6.18;;;3.75;;
81396;SDS011;70852;49.908;8.126;2023-08-20T04:28:38;5.97;;;3.63;;
81396;SDS011;70852;49.908;8.126;2023-08-20T04:31:04;6.47;;;3.70;;
81396;SDS011;70852;49.908;8.126;2023-08-20T04:33:29;7.65;;;3.80;;
81396;SDS011;70852;49.908;8.126;2023-08-20T04:35:57;8.88;;;4.07;;
81396;SDS011;70852;49.908;8.126;2023-08-20T04:38:23;7.88;;;3.80;;
81396;SDS011;70852;49.908;8.126;2023-08-20T04:40:48;5.22;;;3.65;;
81396;SDS011;70852;49.908;8.126;2023-08-20T04:43:14;5.68;;;3.60;;
81396;SDS011;70852;49.908;8.126;2023-08-20T04:45:42;5.97;;;3.70;;
81396;SDS011;70852;49.908;8.126;2023-08-20T04:48:09;6.35;;;3.70;;
81396;SDS011;70852;49.908;8.126;2023-08-20T04:50:35;5.13;;;3.55;;
81396;SDS011;70852;49.908;8.126;2023-08-20T04:53:02;6.13;;;3.67;;
81396;SDS011;70852;49.908;8.126;2023-08-20T04:55:27;6.95;;;3.90;;
81396;SDS011;70852;49.908;8.126;2023-08-20T04:57:53;6.90;;;3.70;;
81396;SDS011;70852;49.908;8.126;2023-08-20T05:00:21;6.63;;;3.72;;
81396;SDS011;70852;49.908;8.126;2023-08-20T05:02:47;5.28;;;3.45;;
81396;SDS011;70852;49.908;8.126;2023-08-20T05:05:15;8.32;;;4.05;;
81396;SDS011;70852;49.908;8.126;2023-08-20T05:07:43;6.85;;;3.92;;
81396;SDS011;70852;49.908;8.126;2023-08-20T05:10:11;6.72;;;3.85;;
81396;SDS011;70852;49.908;8.126;2023-08-20T05:12:36;6.88;;;3.58;;
81396;SDS011;70852;49.908;8.126;2023-08-20T05:15:04;5.55;;;3.88;;
81396;SDS011;70852;49.908;8.126;2023-08-20T05:17:30;7.82;;;4.03;;
81396;SDS011;70852;49.908;8.126;2023-08-20T05:19:55;7.85;;;3.67;;
81396;SDS011;70852;49.908;8.126;2023-08-20T05:22:20;6.80;;;3.95;;
81396;SDS011;70852;49.908;8.126;2023-08-20T05:24:46;7.05;;;4.15;;
81396;SDS011;70852;49.908;8.126;2023-08-20T05:27:12;7.40;;;4.30;;
81396;SDS011;70852;49.908;8.126;2023-08-20T05:29:44;6.60;;;3.70;;
81396;SDS011;70852;49.908;8.126;2023-08-20T05:32:09;6.50;;;3.60;;
81396;SDS011;70852;49.908;8.126;2023-08-20T05:34:35;7.25;;;3.60;;
81396;SDS011;70852;49.908;8.126;2023-08-20T05:37:00;9.60;;;3.90;;
81396;SDS011;70852;49.908;8.126;2023-08-20T05:39:26;6.78;;;3.92;;
81396;SDS011;70852;49.908;8.126;2023-08-20T05:41:52;6.75;;;3.80;;
81396;SDS011;70852;49.908;8.126;2023-08-20T05:44:18;6.15;;;3.60;;
81396;SDS011;70852;49.908;8.126;2023-08-20T05:46:46;9.00;;;3.80;;
81396;SDS011;70852;49.908;8.126;2023-08-20T05:49:12;5.40;;;3.33;;
81396;SDS011;70852;49.908;8.126;2023-08-20T05:51:38;7.93;;;3.90;;
81396;SDS011;70852;49.908;8.126;2023-08-20T05:54:04;5.05;;;3.70;;
81396;SDS011;70852;49.908;8.126;2023-08-20T05:56:31;6.80;;;3.92;;
81396;SDS011;70852;49.908;8.126;2023-08-20T05:58:59;5.97;;;3.60;;
81396;SDS011;70852;49.908;8.126;2023-08-20T06:01:24;6.45;;;4.05;;
81396;SDS011;70852;49.908;8.126;2023-08-20T06:03:50;6.03;;;3.55;;
81396;SDS011;70852;49.908;8.126;2023-08-20T06:06:15;6.20;;;3.97;;
81396;SDS011;70852;49.908;8.126;2023-08-20T06:08:43;4.93;;;3.75;;
81396;SDS011;70852;49.908;8.126;2023-08-20T06:11:08;6.40;;;3.33;;
81396;SDS011;70852;49.908;8.126;2023-08-20T06:13:36;6.15;;;3.17;;
81396;SDS011;70852;49.908;8.126;2023-08-20T06:16:01;6.97;;;3.35;;
81396;SDS011;70852;49.908;8.126;2023-08-20T06:18:26;6.30;;;3.58;;
81396;SDS011;70852;49.908;8.126;2023-08-20T06:20:54;5.97;;;3.22;;
81396;SDS011;70852;49.908;8.126;2023-08-20T06:23:22;7.43;;;3.55;;
81396;SDS011;70852;49.908;8.126;2023-08-20T06:25:50;5.72;;;3.25;;
81396;SDS011;70852;49.908;8.126;2023-08-20T06:28:16;4.50;;;3.33;;
81396;SDS011;70852;49.908;8.126;2023-08-20T06:30:44;6.28;;;3.30;;
81396;SDS011;70852;49.908;8.126;2023-08-20T06:33:10;5.53;;;3.17;;
81396;SDS011;70852;49.908;8.126;2023-08-20T06:35:38;6.90;;;3.40;;
81396;SDS011;70852;49.908;8.126;2023-08-20T06:38:06;5.00;;;3.15;;
81396;SDS011;70852;49.908;8.126;2023-08-20T06:40:32;5.97;;;3.63;;
81396;SDS011;70852;49.908;8.126;2023-08-20T06:42:57;7.32;;;3.45;;
81396;SDS011;70852;49.908;8.126;2023-08-20T06:45:23;7.13;;;3.63;;
81396;SDS011;70852;49.908;8.126;2023-08-20T06:47:50;5.85;;;3.17;;
81396;SDS011;70852;49.908;8.126;2023-08-20T06:50:18;4.85;;;3.30;;
81396;SDS011;70852;49.908;8.126;2023-08-20T06:52:43;5.78;;;3.28;;
81396;SDS011;70852;49.908;8.126;2023-08-20T06:55:11;6.35;;;4.03;;
81396;SDS011;70852;49.908;8.126;2023-08-20T06:57:36;5.72;;;3.70;;
81396;SDS011;70852;49.908;8.126;2023-08-20T07:00:01;4.97;;;3.13;;
81396;SDS011;70852;49.908;8.126;2023-08-20T07:02:34;6.50;;;3.53;;
81396;SDS011;70852;49.908;8.126;2023-08-20T07:05:04;5.32;;;3.40;;
81396;SDS011;70852;49.908;8.126;2023-08-20T07:07:29;4.55;;;3.58;;
81396;SDS011;70852;49.908;8.126;2023-08-20T07:09:54;6.65;;;3.75;;
81396;SDS011;70852;49.908;8.126;2023-08-20T07:12:22;5.32;;;4.05;;
81396;SDS011;70852;49.908;8.126;2023-08-20T07:14:50;5.40;;;2.78;;
81396;SDS011;70852;49.908;8.126;2023-08-20T07:17:20;5.00;;;3.05;;
81396;SDS011;70852;49.908;8.126;2023-08-20T07:19:45;5.63;;;3.85;;
81396;SDS011;70852;49.908;8.126;2023-08-20T07:22:13;5.10;;;2.88;;
81396;SDS011;70852;49.908;8.126;2023-08-20T07:24:41;7.82;;;3.78;;
81396;SDS011;70852;49.908;8.126;2023-08-20T07:27:07;4.45;;;3.17;;
81396;SDS011;70852;49.908;8.126;2023-08-20T07:29:36;4.10;;;2.90;;
81396;SDS011;70852;49.908;8.126;2023-08-20T07:32:04;5.38;;;3.10;;
81396;SDS011;70852;49.908;8.126;2023-08-20T07:34:32;4.93;;;3.08;;
81396;SDS011;70852;49.908;8.126;2023-08-20T07:36:59;5.15;;;4.05;;
81396;SDS011;70852;49.908;8.126;2023-08-20T07:39:24;4.88;;;3.05;;
81396;SDS011;70852;49.908;8.126;2023-08-20T07:41:50;4.40;;;3.28;;
81396;SDS011;70852;49.908;8.126;2023-08-20T07:44:17;5.45;;;3.70;;
81396;SDS011;70852;49.908;8.126;2023-08-20T07:46:43;4.57;;;3.13;;
81396;SDS011;70852;49.908;8.126;2023-08-20T07:49:10;3.97;;;3.22;;
81396;SDS011;70852;49.908;8.126;2023-08-20T07:51:36;5.28;;;3.45;;
81396;SDS011;70852;49.908;8.126;2023-08-20T07:54:01;5.60;;;3.42;;
81396;SDS011;70852;49.908;8.126;2023-08-20T07:56:29;4.63;;;3.65;;
81396;SDS011;70852;49.908;8.126;2023-08-20T07:58:59;5.13;;;3.83;;
81396;SDS011;70852;49.908;8.126;2023-08-20T08:01:27;6.80;;;3.80;;
81396;SDS011;70852;49.908;8.126;2023-08-20T08:03:57;5.53;;;3.72;;
81396;SDS011;70852;49.908;8.126;2023-08-20T08:06:24;4.97;;;4.25;;
81396;SDS011;70852;49.908;8.126;2023-08-20T08:08:50;4.68;;;4.07;;
81396;SDS011;70852;49.908;8.126;2023-08-20T08:11:17;5.03;;;3.72;;
81396;SDS011;70852;49.908;8.126;2023-08-20T08:13:42;4.78;;;4.07;;
81396;SDS011;70852;49.908;8.126;2023-08-20T08:16:12;6.13;;;4.57;;
81396;SDS011;70852;49.908;8.126;2023-08-20T08:18:38;4.72;;;4.22;;
81396;SDS011;70852;49.908;8.126;2023-08-20T08:21:05;5.18;;;4.68;;
81396;SDS011;70852;49.908;8.126;2023-08-20T08:23:33;5.85;;;4.43;;
81396;SDS011;70852;49.908;8.126;2023-08-20T08:26:00;5.20;;;4.25;;
81396;SDS011;70852;49.908;8.126;2023-08-20T08:28:28;6.63;;;6.00;;
81396;SDS011;70852;49.908;8.126;2023-08-20T08:30:53;6.03;;;5.53;;
81396;SDS011;70852;49.908;8.126;2023-08-20T08:33:21;4.95;;;4.43;;
81396;SDS011;70852;49.908;8.126;2023-08-20T08:35:51;5.70;;;4.75;;
81396;SDS011;70852;49.908;8.126;2023-08-20T08:38:17;5.70;;;5.25;;
81396;SDS011;70852;49.908;8.126;2023-08-20T08:40:44;5.78;;;5.18;;
81396;SDS011;70852;49.908;8.126;2023-08-20T08:43:10;6.38;;;5.78;;
81396;SDS011;70852;49.908;8.126;2023-08-20T08:45:43;5.75;;;5.25;;
81396;SDS011;70852;49.908;8.126;2023-08-20T08:48:14;5.90;;;5.40;;
81396;SDS011;70852;49.908;8.126;2023-08-20T08:50:42;5.70;;;5.18;;
81396;SDS011;70852;49.908;8.126;2023-08-20T08:53:08;5.78;;;5.13;;
81396;SDS011;70852;49.908;8.126;2023-08-20T08:55:37;5.82;;;5.20;;
81396;SDS011;70852;49.908;8.126;2023-08-20T08:58:03;6.95;;;5.22;;
81396;SDS011;70852;49.908;8.126;2023-08-20T09:00:28;6.55;;;5.28;;
81396;SDS011;70852;49.908;8.126;2023-08-20T09:02:59;6.43;;;5.88;;
81396;SDS011;70852;49.908;8.126;2023-08-20T09:05:25;5.95;;;5.45;;
81396;SDS011;70852;49.908;8.126;2023-08-20T09:07:54;6.38;;;5.88;;
81396;SDS011;70852;49.908;8.126;2023-08-20T09:10:26;6.15;;;5.65;;
81396;SDS011;70852;49.908;8.126;2023-08-20T09:12:56;7.55;;;6.95;;
81396;SDS011;70852;49.908;8.126;2023-08-20T09:15:22;9.30;;;8.60;;
81396;SDS011;70852;49.908;8.126;2023-08-20T09:17:56;7.43;;;6.75;;
81396;SDS011;70852;49.908;8.126;2023-08-20T09:20:33;6.82;;;6.22;;
81396;SDS011;70852;49.908;8.126;2023-08-20T09:22:59;7.55;;;6.95;;
81396;SDS011;70852;49.908;8.126;2023-08-20T09:25:24;9.90;;;9.13;;
81396;SDS011;70852;49.908;8.126;2023-08-20T09:27:50;7.28;;;6.78;;
81396;SDS011;70852;49.908;8.126;2023-08-20T09:30:17;6.75;;;6.25;;
81396;SDS011;70852;49.908;8.126;2023-08-20T09:32:46;7.13;;;6.53;;
81396;SDS011;70852;49.908;8.126;2023-08-20T09:35:30;8.45;;;7.85;;
81396;SDS011;70852;49.908;8.126;2023-08-20T09:38:03;10.00;;;9.30;;
81396;SDS011;70852;49.908;8.126;2023-08-20T09:40:31;9.35;;;8.65;;
81396;SDS011;70852;49.908;8.126;2023-08-20T09:42:59;7.68;;;7.10;;
81396;SDS011;70852;49.908;8.126;2023-08-20T09:45:27;13.25;;;12.20;;
81396;SDS011;70852;49.908;8.126;2023-08-20T09:47:57;10.98;;;10.23;;
81396;SDS011;70852;49.908;8.126;2023-08-20T09:50:24;7.45;;;6.95;;
81396;SDS011;70852;49.908;8.126;2023-08-20T09:53:03;8.10;;;7.30;;
81396;SDS011;70852;49.908;8.126;2023-08-20T09:55:34;9.63;;;8.93;;
81396;SDS011;70852;49.908;8.126;2023-08-20T09:58:04;8.65;;;8.02;;
81396;SDS011;70852;49.908;8.126;2023-08-20T10:00:30;9.00;;;8.35;;
81396;SDS011;70852;49.908;8.126;2023-08-20T10:02:57;10.00;;;9.32;;
81396;SDS011;70852;49.908;8.126;2023-08-20T10:05:22;8.18;;;7.57;;
81396;SDS011;70852;49.908;8.126;2023-08-20T10:07:51;9.27;;;8.57;;
81396;SDS011;70852;49.908;8.126;2023-08-20T10:10:19;9.80;;;8.93;;
81396;SDS011;70852;49.908;8.126;2023-08-20T10:12:44;9.98;;;9.18;;
81396;SDS011;70852;49.908;8.126;2023-08-20T10:15:13;9.90;;;9.27;;
81396;SDS011;70852;49.908;8.126;2023-08-20T10:17:39;10.73;;;10.02;;
81396;SDS011;70852;49.908;8.126;2023-08-20T10:20:09;10.85;;;10.13;;
81396;SDS011;70852;49.908;8.126;2023-08-20T10:22:38;11.07;;;10.35;;
81396;SDS011;70852;49.908;8.126;2023-08-20T10:25:05;10.80;;;9.98;;
81396;SDS011;70852;49.908;8.126;2023-08-20T10:27:32;10.93;;;10.18;;
81396;SDS011;70852;49.908;8.126;2023-08-20T10:29:59;13.88;;;13.07;;
81396;SDS011;70852;49.908;8.126;2023-08-20T10:35:11;11.63;;;10.82;;
81396;SDS011;70852;49.908;8.126;2023-08-20T10:37:37;12.20;;;11.50;;
81396;SDS011;70852;49.908;8.126;2023-08-20T10:40:05;10.23;;;9.57;;
81396;SDS011;70852;49.908;8.126;2023-08-20T10:42:41;10.52;;;9.82;;
81396;SDS011;70852;49.908;8.126;2023-08-20T10:45:08;15.82;;;14.88;;
81396;SDS011;70852;49.908;8.126;2023-08-20T10:47:43;8.77;;;8.13;;
81396;SDS011;70852;49.908;8.126;2023-08-20T10:50:09;9.40;;;8.77;;
81396;SDS011;70852;49.908;8.126;2023-08-20T10:52:40;8.50;;;7.90;;
81396;SDS011;70852;49.908;8.126;2023-08-20T10:55:12;8.05;;;7.45;;
81396;SDS011;70852;49.908;8.126;2023-08-20T10:57:43;8.65;;;7.95;;
81396;SDS011;70852;49.908;8.126;2023-08-20T11:00:08;9.82;;;9.13;;
81396;SDS011;70852;49.908;8.126;2023-08-20T11:02:36;5.75;;;5.30;;
81396;SDS011;70852;49.908;8.126;2023-08-20T11:05:03;5.38;;;4.93;;
81396;SDS011;70852;49.908;8.126;2023-08-20T11:07:29;5.35;;;4.85;;
81396;SDS011;70852;49.908;8.126;2023-08-20T11:09:56;8.93;;;8.13;;
81396;SDS011;70852;49.908;8.126;2023-08-20T11:14:50;5.03;;;4.50;;
81396;SDS011;70852;49.908;8.126;2023-08-20T11:17:15;6.00;;;4.17;;
81396;SDS011;70852;49.908;8.126;2023-08-20T11:19:43;5.85;;;5.30;;
81396;SDS011;70852;49.908;8.126;2023-08-20T11:22:11;4.68;;;3.50;;
81396;SDS011;70852;49.908;8.126;2023-08-20T11:24:41;4.93;;;3.95;;
81396;SDS011;70852;49.908;8.126;2023-08-20T11:27:07;4.93;;;4.18;;
81396;SDS011;70852;49.908;8.126;2023-08-20T11:29:33;4.45;;;3.95;;
81396;SDS011;70852;49.908;8.126;2023-08-20T11:31:58;4.28;;;3.85;;
81396;SDS011;70852;49.908;8.126;2023-08-20T11:34:25;4.93;;;3.40;;
81396;SDS011;70852;49.908;8.126;2023-08-20T11:36:51;5.35;;;4.85;;
81396;SDS011;70852;49.908;8.126;2023-08-20T11:39:17;4.65;;;3.58;;
81396;SDS011;70852;49.908;8.126;2023-08-20T11:41:43;4.47;;;3.33;;
81396;SDS011;70852;49.908;8.126;2023-08-20T11:44:09;4.43;;;4.03;;
81396;SDS011;70852;49.908;8.126;2023-08-20T11:46:41;4.40;;;3.58;;
81396;SDS011;70852;49.908;8.126;2023-08-20T11:49:11;4.57;;;3.55;;
81396;SDS011;70852;49.908;8.126;2023-08-20T11:54:11;4.15;;;3.13;;
81396;SDS011;70852;49.908;8.126;2023-08-20T11:56:47;4.57;;;3.17;;
81396;SDS011;70852;49.908;8.126;2023-08-20T11:59:14;4.72;;;3.60;;
81396;SDS011;70852;49.908;8.126;2023-08-20T12:01:40;4.75;;;3.35;;
81396;SDS011;70852;49.908;8.126;2023-08-20T12:04:08;5.65;;;3.40;;
81396;SDS011;70852;49.908;8.126;2023-08-20T12:06:35;5.32;;;3.28;;
81396;SDS011;70852;49.908;8.126;2023-08-20T12:09:17;4.43;;;3.53;;
81396;SDS011;70852;49.908;8.126;2023-08-20T12:11:51;4.88;;;3.38;;
81396;SDS011;70852;49.908;8.126;2023-08-20T12:14:21;4.90;;;3.20;;
81396;SDS011;70852;49.908;8.126;2023-08-20T12:16:46;4.15;;;3.05;;
81396;SDS011;70852;49.908;8.126;2023-08-20T12:19:13;4.57;;;3.45;;
81396;SDS011;70852;49.908;8.126;2023-08-20T12:21:38;4.93;;;3.13;;
81396;SDS011;70852;49.908;8.126;2023-08-20T12:24:05;4.68;;;3.80;;
81396;SDS011;70852;49.908;8.126;2023-08-20T12:26:33;6.95;;;2.83;;
81396;SDS011;70852;49.908;8.126;2023-08-20T12:29:01;5.10;;;3.70;;
81396;SDS011;70852;49.908;8.126;2023-08-20T12:31:26;4.07;;;3.15;;
81396;SDS011;70852;49.908;8.126;2023-08-20T12:33:51;5.47;;;3.97;;
81396;SDS011;70852;49.908;8.126;2023-08-20T12:36:19;5.43;;;3.83;;
81396;SDS011;70852;49.908;8.126;2023-08-20T12:38:44;5.82;;;4.13;;
81396;SDS011;70852;49.908;8.126;2023-08-20T12:41:10;5.82;;;3.53;;
81396;SDS011;70852;49.908;8.126;2023-08-20T12:43:35;5.78;;;2.78;;
81396;SDS011;70852;49.908;8.126;2023-08-20T12:46:00;3.95;;;2.85;;
81396;SDS011;70852;49.908;8.126;2023-08-20T12:48:28;5.07;;;3.47;;
81396;SDS011;70852;49.908;8.126;2023-08-20T12:50:53;4.45;;;3.88;;
81396;SDS011;70852;49.908;8.126;2023-08-20T12:53:19;3.92;;;2.83;;
81396;SDS011;70852;49.908;8.126;2023-08-20T12:55:44;4.78;;;3.55;;
81396;SDS011;70852;49.908;8.126;2023-08-20T12:58:10;3.90;;;3.10;;
81396;SDS011;70852;49.908;8.126;2023-08-20T13:00:38;4.80;;;2.88;;
81396;SDS011;70852;49.908;8.126;2023-08-20T13:03:04;4.30;;;3.70;;
81396;SDS011;70852;49.908;8.126;2023-08-20T13:05:29;4.13;;;3.05;;
81396;SDS011;70852;49.908;8.126;2023-08-20T13:07:55;4.82;;;2.78;;
81396;SDS011;70852;49.908;8.126;2023-08-20T13:10:24;5.20;;;2.55;;
81396;SDS011;70852;49.908;8.126;2023-08-20T13:12:54;5.60;;;2.83;;
81396;SDS011;70852;49.908;8.126;2023-08-20T13:15:21;4.90;;;3.60;;
81396;SDS011;70852;49.908;8.126;2023-08-20T13:20:17;3.72;;;2.72;;
81396;SDS011;70852;49.908;8.126;2023-08-20T13:25:17;4.47;;;3.05;;
81396;SDS011;70852;49.908;8.126;2023-08-20T13:27:46;3.60;;;2.80;;
81396;SDS011;70852;49.908;8.126;2023-08-20T13:30:16;3.30;;;2.35;;
81396;SDS011;70852;49.908;8.126;2023-08-20T13:32:45;4.88;;;2.67;;
81396;SDS011;70852;49.908;8.126;2023-08-20T13:35:10;4.32;;;2.90;;
81396;SDS011;70852;49.908;8.126;2023-08-20T13:37:39;4.22;;;3.00;;
81396;SDS011;70852;49.908;8.126;2023-08-20T13:40:04;5.38;;;3.00;;
81396;SDS011;70852;49.908;8.126;2023-08-20T13:42:31;5.40;;;3.40;;
81396;SDS011;70852;49.908;8.126;2023-08-20T13:44:57;4.75;;;3.03;;
81396;SDS011;70852;49.908;8.126;2023-08-20T13:47:24;3.80;;;2.40;;
81396;SDS011;70852;49.908;8.126;2023-08-20T13:49:50;3.60;;;2.53;;
81396;SDS011;70852;49.908;8.126;2023-08-20T13:52:17;4.45;;;2.47;;
81396;SDS011;70852;49.908;8.126;2023-08-20T13:54:43;5.00;;;2.45;;
81396;SDS011;70852;49.908;8.126;2023-08-20T13:57:09;4.00;;;2.83;;
81396;SDS011;70852;49.908;8.126;2023-08-20T13:59:34;4.18;;;2.22;;
81396;SDS011;70852;49.908;8.126;2023-08-20T14:01:59;3.60;;;2.33;;
81396;SDS011;70852;49.908;8.126;2023-08-20T14:04:27;3.90;;;2.88;;
81396;SDS011;70852;49.908;8.126;2023-08-20T14:06:52;5.00;;;2.90;;
81396;SDS011;70852;49.908;8.126;2023-08-20T14:09:18;4.22;;;2.60;;
81396;SDS011;70852;49.908;8.126;2023-08-20T14:11:44;3.53;;;2.70;;
81396;SDS011;70852;49.908;8.126;2023-08-20T14:14:11;3.45;;;2.20;;
81396;SDS011;70852;49.908;8.126;2023-08-20T14:16:37;4.75;;;2.90;;
81396;SDS011;70852;49.908;8.126;2023-08-20T14:19:02;3.95;;;2.53;;
81396;SDS011;70852;49.908;8.126;2023-08-20T14:21:30;3.13;;;2.33;;
81396;SDS011;70852;49.908;8.126;2023-08-20T14:23:57;4.88;;;3.05;;
81396;SDS011;70852;49.908;8.126;2023-08-20T14:26:27;4.55;;;3.75;;
81396;SDS011;70852;49.908;8.126;2023-08-20T14:28:53;3.53;;;2.35;;
81396;SDS011;70852;49.908;8.126;2023-08-20T14:31:18;4.05;;;2.30;;
81396;SDS011;70852;49.908;8.126;2023-08-20T14:33:44;3.70;;;2.55;;
81396;SDS011;70852;49.908;8.126;2023-08-20T14:36:09;4.78;;;2.15;;
81396;SDS011;70852;49.908;8.126;2023-08-20T14:38:34;4.03;;;2.50;;
81396;SDS011;70852;49.908;8.126;2023-08-20T14:41:00;4.85;;;2.50;;
81396;SDS011;70852;49.908;8.126;2023-08-20T14:43:29;3.40;;;2.22;;
81396;SDS011;70852;49.908;8.126;2023-08-20T14:45:55;3.92;;;2.30;;
81396;SDS011;70852;49.908;8.126;2023-08-20T14:48:21;4.15;;;2.20;;
81396;SDS011;70852;49.908;8.126;2023-08-20T14:50:47;9.50;;;6.22;;
81396;SDS011;70852;49.908;8.126;2023-08-20T14:53:13;5.97;;;3.97;;
81396;SDS011;70852;49.908;8.126;2023-08-20T14:55:40;3.88;;;3.22;;
81396;SDS011;70852;49.908;8.126;2023-08-20T14:58:06;4.65;;;2.42;;
81396;SDS011;70852;49.908;8.126;2023-08-20T15:00:36;5.95;;;2.70;;
81396;SDS011;70852;49.908;8.126;2023-08-20T15:03:01;3.60;;;2.35;;
81396;SDS011;70852;49.908;8.126;2023-08-20T15:05:29;4.70;;;2.60;;
81396;SDS011;70852;49.908;8.126;2023-08-20T15:07:55;4.20;;;2.67;;
81396;SDS011;70852;49.908;8.126;2023-08-20T15:10:21;4.65;;;2.70;;